createdAt,value
2022-09-17T00:00:26.046Z,55.27
2022-09-17T00:03:23.293Z,55.30
2022-09-17T00:06:13.609Z,56.13
2022-09-17T00:09:11.668Z,56.27
2022-09-17T00:12:01.510Z,57.43
2022-09-17T00:14:58.838Z,57.00
2022-09-17T00:17:47.127Z,56.93
2022-09-17T00:20:47.513Z,57.27
2022-09-17T00:23:35.894Z,57.17
2022-09-17T00:26:34.163Z,56.13
2022-09-17T00:29:23.900Z,57.57
2022-09-17T00:32:21.080Z,56.67
2022-09-17T00:35:09.468Z,57.47
2022-09-17T00:38:06.994Z,57.77
2022-09-17T00:40:55.711Z,57.87
2022-09-17T00:43:57.230Z,57.63
2022-09-17T00:46:47.271Z,58.47
2022-09-17T00:49:35.684Z,57.57
2022-09-17T00:52:34.622Z,56.67
2022-09-17T00:55:26.746Z,57.33
2022-09-17T00:58:17.956Z,56.33
2022-09-17T01:01:06.878Z,56.23
2022-09-17T01:04:02.958Z,56.10
2022-09-17T01:07:00.811Z,55.27
2022-09-17T01:09:55.861Z,55.23
2022-09-17T01:12:59.060Z,53.70
2022-09-17T01:15:55.245Z,53.03
2022-09-17T01:18:56.445Z,52.73
2022-09-17T01:21:58.777Z,54.07
2022-09-17T01:24:51.090Z,56.33
2022-09-17T01:28:23.894Z,56.37
2022-09-17T01:31:36.221Z,56.13
2022-09-17T01:34:31.985Z,55.17
2022-09-17T01:37:30.889Z,54.83
2022-09-17T01:40:25.882Z,54.43
2022-09-17T01:43:22.510Z,54.33
2022-09-17T01:46:16.742Z,53.93
2022-09-17T01:49:08.722Z,54.10
2022-09-17T01:51:57.336Z,52.30
2022-09-17T01:54:56.926Z,51.33
2022-09-17T01:57:50.904Z,50.63
2022-09-17T02:00:42.544Z,48.40
2022-09-17T02:03:35.864Z,48.13
2022-09-17T02:06:30.518Z,46.83
2022-09-17T02:09:23.584Z,46.07
2022-09-17T02:12:16.226Z,46.03
2022-09-17T02:15:09.940Z,45.90
2022-09-17T02:18:06.644Z,45.30
2022-09-17T02:21:04.228Z,45.07
2022-09-17T02:24:04.424Z,43.93
2022-09-17T02:26:59.604Z,43.00
2022-09-17T02:29:47.872Z,42.73
2022-09-17T02:32:46.390Z,41.67
2022-09-17T02:35:34.810Z,42.50
2022-09-17T02:38:32.403Z,42.63
2022-09-17T02:41:27.068Z,42.07
2022-09-17T02:44:23.115Z,42.13
2022-09-17T02:47:30.272Z,42.07
2022-09-17T02:50:33.396Z,42.03
2022-09-17T02:53:38.290Z,42.10
2022-09-17T02:56:39.436Z,43.80
2022-09-17T02:59:32.856Z,43.80
2022-09-17T03:02:25.447Z,43.23
2022-09-17T03:05:15.539Z,43.33
2022-09-17T03:08:13.189Z,43.60
2022-09-17T03:11:01.536Z,44.00
2022-09-17T03:13:51.311Z,44.33
2022-09-17T03:16:39.667Z,43.50
2022-09-17T03:19:28.425Z,44.23
2022-09-17T03:22:16.661Z,44.10
2022-09-17T03:25:05.665Z,43.47
2022-09-17T03:27:53.935Z,43.77
2022-09-17T03:30:44.386Z,43.17
2022-09-17T03:33:32.684Z,43.57
2022-09-17T03:36:21.033Z,43.77
2022-09-17T03:39:09.619Z,44.07
2022-09-17T03:42:03.968Z,44.40
2022-09-17T03:44:52.181Z,45.43
2022-09-17T03:47:41.811Z,45.67
2022-09-17T03:50:30.071Z,45.97
2022-09-17T03:53:27.571Z,46.10
2022-09-17T03:56:16.396Z,46.83
2022-09-17T03:59:13.433Z,46.60
2022-09-17T04:02:01.874Z,47.23
2022-09-17T04:04:54.802Z,45.80
2022-09-17T04:07:43.116Z,45.63
2022-09-17T04:10:40.510Z,45.87
2022-09-17T04:13:28.808Z,45.30
2022-09-17T04:16:26.032Z,45.23
2022-09-17T04:19:14.489Z,45.17
2022-09-17T04:22:13.603Z,45.23
2022-09-17T04:25:01.930Z,45.80
2022-09-17T04:27:59.302Z,45.87
2022-09-17T04:30:49.044Z,45.77
2022-09-17T04:33:46.313Z,46.10
2022-09-17T04:36:34.591Z,46.47
2022-09-17T04:39:33.301Z,46.00
2022-09-17T04:42:21.576Z,46.57
2022-09-17T04:45:18.885Z,46.87
2022-09-17T04:48:07.178Z,47.23
2022-09-17T04:51:01.763Z,46.47
2022-09-17T04:53:50.040Z,46.53
2022-09-17T04:56:45.639Z,45.80
2022-09-17T04:59:33.984Z,45.90
2022-09-17T05:02:28.354Z,46.00
2022-09-17T05:05:17.852Z,46.37
2022-09-17T05:08:12.267Z,44.93
2022-09-17T05:11:00.644Z,44.43
2022-09-17T05:13:56.346Z,43.03
2022-09-17T05:16:44.688Z,42.23
2022-09-17T05:19:38.857Z,42.27
2022-09-17T05:22:27.512Z,40.20
2022-09-17T05:25:24.934Z,40.37
2022-09-17T05:28:13.352Z,39.70
2022-09-17T05:31:09.398Z,39.13
2022-09-17T05:33:59.063Z,40.47
2022-09-17T05:36:53.368Z,39.70
2022-09-17T05:39:41.707Z,39.20
2022-09-17T05:42:36.668Z,38.23
2022-09-17T05:45:25.061Z,37.00
2022-09-17T05:48:16.059Z,35.00
2022-09-17T05:51:04.485Z,34.03
2022-09-17T05:53:58.749Z,33.57
2022-09-17T05:56:47.095Z,32.70
2022-09-17T05:59:41.420Z,33.37
2022-09-17T06:02:29.771Z,34.00
2022-09-17T06:05:25.313Z,32.70
2022-09-17T06:08:13.657Z,31.53
2022-09-17T06:11:08.951Z,29.70
2022-09-17T06:13:58.030Z,28.83
2022-09-17T06:16:52.464Z,28.43
2022-09-17T06:19:40.773Z,28.07
2022-09-17T06:22:36.353Z,26.33
2022-09-17T06:25:24.948Z,26.13
2022-09-17T06:28:19.202Z,25.40
2022-09-17T06:31:09.169Z,22.60
2022-09-17T06:34:05.715Z,22.07
2022-09-17T06:36:53.963Z,21.93
2022-09-17T06:39:49.954Z,20.50
2022-09-17T06:42:38.356Z,19.37
2022-09-17T06:45:33.275Z,17.37
2022-09-17T06:48:21.996Z,15.60
2022-09-17T06:51:12.181Z,15.37
2022-09-17T06:54:00.542Z,13.93
2022-09-17T06:56:50.218Z,13.50
2022-09-17T06:59:38.543Z,13.30
2022-09-17T07:02:26.817Z,12.40
2022-09-17T07:05:15.306Z,12.67
2022-09-17T07:08:04.588Z,12.57
2022-09-17T07:11:02.389Z,12.00
2022-09-17T07:13:52.345Z,11.83
2022-09-17T07:16:40.622Z,12.10
2022-09-17T07:19:35.111Z,11.10
2022-09-17T07:22:25.723Z,11.33
2022-09-17T07:25:15.965Z,11.10
2022-09-17T07:28:13.515Z,10.97
2022-09-17T07:31:06.493Z,11.40
2022-09-17T07:33:54.997Z,10.37
2022-09-17T07:36:49.174Z,10.37
2022-09-17T07:39:37.545Z,9.80
2022-09-17T07:42:32.027Z,9.37
2022-09-17T07:45:20.324Z,8.53
2022-09-17T07:48:10.042Z,8.70
2022-09-17T07:51:07.707Z,8.50
2022-09-17T07:53:57.962Z,9.03
2022-09-17T07:56:55.406Z,9.13
2022-09-17T07:59:43.750Z,8.20
2022-09-17T08:02:41.105Z,8.70
2022-09-17T08:05:30.834Z,7.70
2022-09-17T08:08:28.102Z,7.40
2022-09-17T08:11:38.217Z,7.00
2022-09-17T08:14:29.729Z,7.60
2022-09-17T08:17:18.570Z,7.70
2022-09-17T08:20:17.261Z,7.70
2022-09-17T08:23:06.899Z,7.37
2022-09-17T08:26:06.110Z,7.23
2022-09-17T08:28:56.693Z,7.57
2022-09-17T08:31:45.066Z,6.60
2022-09-17T08:34:39.632Z,6.90
2022-09-17T08:37:29.818Z,6.47
2022-09-17T08:40:27.962Z,5.70
2022-09-17T08:43:19.695Z,6.10
2022-09-17T08:46:11.136Z,6.33
2022-09-17T08:49:08.518Z,6.00
2022-09-17T08:52:29.332Z,5.97
2022-09-17T08:55:34.112Z,6.23
2022-09-17T08:58:35.368Z,6.57
2022-09-17T09:01:43.603Z,6.20
2022-09-17T09:04:59.814Z,5.90
2022-09-17T09:07:52.806Z,5.70
2022-09-17T09:10:49.032Z,4.63
2022-09-17T09:13:43.293Z,5.20
2022-09-17T09:16:35.166Z,5.00
2022-09-17T09:19:25.622Z,4.83
2022-09-17T09:22:37.580Z,4.87
2022-09-17T09:25:28.640Z,4.60
2022-09-17T09:28:43.261Z,4.80
2022-09-17T09:31:47.426Z,4.50
2022-09-17T09:34:37.727Z,4.40
2022-09-17T09:37:36.353Z,4.20
2022-09-17T09:40:34.474Z,4.37
2022-09-17T09:43:46.358Z,4.37
2022-09-17T09:46:48.954Z,3.60
2022-09-17T09:49:50.373Z,3.83
2022-09-17T09:52:53.016Z,3.47
2022-09-17T09:56:02.251Z,3.75
2022-09-17T09:58:50.580Z,3.88
2022-09-17T10:01:46.503Z,3.87
2022-09-17T10:04:35.033Z,3.75
2022-09-17T10:07:29.566Z,3.33
2022-09-17T10:10:17.934Z,3.83
2022-09-17T10:13:15.047Z,3.92
2022-09-17T10:16:18.946Z,3.42
2022-09-17T10:19:19.737Z,3.72
2022-09-17T10:22:21.637Z,3.60
2022-09-17T10:25:25.692Z,3.20
2022-09-17T10:28:36.626Z,3.22
2022-09-17T10:31:25.291Z,3.03
2022-09-17T10:34:27.017Z,3.20
2022-09-17T10:37:35.875Z,2.85
2022-09-17T10:40:31.438Z,2.90
2022-09-17T10:43:23.934Z,2.58
2022-09-17T10:46:16.498Z,2.60
2022-09-17T10:49:11.288Z,2.92
2022-09-17T10:52:09.773Z,2.95
2022-09-17T10:55:20.168Z,2.97
2022-09-17T10:58:25.509Z,2.78
2022-09-17T11:01:26.504Z,2.90
2022-09-17T11:04:26.907Z,3.17
2022-09-17T11:07:33.448Z,3.25
2022-09-17T11:10:31.012Z,3.30
2022-09-17T11:13:27.555Z,3.30
2022-09-17T11:16:32.051Z,3.63
2022-09-17T11:19:28.637Z,3.47
2022-09-17T11:22:28.447Z,3.00
2022-09-17T11:25:29.758Z,3.10
2022-09-17T11:28:48.598Z,3.50
2022-09-17T11:31:44.651Z,3.63
2022-09-17T11:34:39.349Z,3.70
2022-09-17T11:37:34.258Z,3.80
2022-09-17T11:40:26.958Z,4.00
2022-09-17T11:43:26.342Z,4.63
2022-09-17T11:46:20.053Z,4.93
2022-09-17T11:49:16.738Z,5.10
2022-09-17T11:52:11.321Z,5.70
2022-09-17T11:55:10.859Z,6.00
2022-09-17T11:58:03.916Z,5.63
2022-09-17T12:01:00.017Z,6.17
2022-09-17T12:03:54.848Z,5.90
2022-09-17T12:06:50.585Z,6.00
2022-09-17T12:09:44.318Z,6.33
2022-09-17T12:12:49.513Z,6.00
2022-09-17T12:15:43.534Z,6.03
2022-09-17T12:18:44.294Z,6.37
2022-09-17T12:21:38.335Z,5.73
2022-09-17T12:24:28.299Z,6.13
2022-09-17T12:27:39.265Z,5.60
2022-09-17T12:30:33.771Z,5.87
2022-09-17T12:33:29.264Z,5.33
2022-09-17T12:36:36.811Z,5.33
2022-09-17T12:39:59.773Z,5.60
2022-09-17T12:43:16.005Z,5.73
2022-09-17T12:46:17.058Z,5.93
2022-09-17T12:49:22.006Z,6.00
2022-09-17T12:52:22.428Z,6.80
2022-09-17T12:55:26.954Z,6.83
2022-09-17T12:58:29.443Z,6.63
2022-09-17T13:01:25.523Z,6.27
2022-09-17T13:04:50.167Z,6.10
2022-09-17T13:08:10.212Z,5.90
2022-09-17T13:11:27.561Z,6.13
2022-09-17T13:14:23.709Z,6.43
2022-09-17T13:17:20.861Z,6.50
2022-09-17T13:20:18.611Z,6.87
2022-09-17T13:23:07.507Z,6.50
2022-09-17T13:26:05.467Z,6.50
2022-09-17T13:28:54.149Z,6.80
2022-09-17T13:31:51.080Z,6.33
2022-09-17T13:34:39.485Z,6.03
2022-09-17T13:37:34.571Z,6.33
2022-09-17T13:40:24.692Z,6.20
2022-09-17T13:43:27.100Z,5.97
2022-09-17T13:46:24.083Z,6.00
2022-09-17T13:49:17.399Z,6.00
2022-09-17T13:52:09.019Z,6.00
2022-09-17T13:55:00.490Z,6.43
2022-09-17T13:57:59.085Z,6.10
2022-09-17T14:00:54.241Z,6.07
2022-09-17T14:03:52.714Z,5.30
2022-09-17T14:06:55.968Z,5.53
2022-09-17T14:09:53.389Z,6.50
2022-09-17T14:13:21.573Z,5.77
2022-09-17T14:16:50.473Z,6.30
2022-09-17T14:19:51.562Z,6.23
2022-09-17T14:22:41.699Z,6.70
2022-09-17T14:25:42.129Z,7.57
2022-09-17T14:28:40.797Z,7.93
2022-09-17T14:31:35.157Z,7.60
2022-09-17T14:34:26.709Z,7.50
2022-09-17T14:37:19.645Z,7.83
2022-09-17T14:40:12.706Z,8.20
2022-09-17T14:43:02.907Z,8.73
2022-09-17T14:45:55.463Z,8.67
2022-09-17T14:48:43.803Z,8.60
2022-09-17T14:51:41.561Z,8.53
2022-09-17T14:54:35.830Z,8.57
2022-09-17T14:57:28.889Z,8.23
2022-09-17T15:00:21.835Z,8.13
2022-09-17T15:03:22.445Z,8.17
2022-09-17T15:06:21.737Z,8.40
2022-09-17T15:09:16.324Z,8.93
2022-09-17T15:12:06.797Z,9.00
2022-09-17T15:14:58.015Z,8.93
2022-09-17T15:17:46.743Z,9.40
2022-09-17T15:20:48.059Z,9.93
2022-09-17T15:23:37.865Z,9.70
2022-09-17T15:26:40.815Z,10.00
2022-09-17T15:29:31.839Z,9.13
2022-09-17T15:32:21.782Z,8.50
2022-09-17T15:35:28.443Z,8.60
2022-09-17T15:38:27.518Z,8.50
2022-09-17T15:41:28.589Z,8.67
2022-09-17T15:44:30.750Z,9.20
2022-09-17T15:47:50.535Z,9.07
2022-09-17T15:50:52.354Z,10.20
2022-09-17T15:53:40.695Z,9.70
2022-09-17T15:56:40.381Z,9.20
2022-09-17T15:59:30.985Z,9.73
2022-09-17T16:02:28.485Z,9.27
2022-09-17T16:05:46.453Z,9.60
2022-09-17T16:08:36.465Z,9.60
2022-09-17T16:11:32.337Z,10.00
2022-09-17T16:14:20.709Z,10.50
2022-09-17T16:17:29.113Z,10.80
2022-09-17T16:20:22.023Z,10.97
2022-09-17T16:23:11.355Z,11.83
2022-09-17T16:26:16.640Z,11.27
2022-09-17T16:29:08.055Z,11.57
2022-09-17T16:31:56.651Z,11.73
2022-09-17T16:34:45.037Z,12.67
2022-09-17T16:37:42.694Z,12.57
2022-09-17T16:40:31.441Z,13.53
2022-09-17T16:43:30.522Z,13.33
2022-09-17T16:46:19.006Z,13.80
2022-09-17T16:49:15.458Z,14.27
2022-09-17T16:52:03.786Z,14.27
2022-09-17T16:54:58.250Z,15.17
2022-09-17T16:57:46.845Z,15.53
2022-09-17T17:00:37.480Z,16.03
2022-09-17T17:03:26.078Z,16.67
2022-09-17T17:06:17.194Z,16.90
2022-09-17T17:09:05.657Z,17.33
2022-09-17T17:11:53.966Z,18.07
2022-09-17T17:14:42.305Z,18.30
2022-09-17T17:17:32.467Z,19.50
2022-09-17T17:20:21.018Z,19.10
2022-09-17T17:23:09.521Z,19.60
2022-09-17T17:25:58.110Z,20.40
2022-09-17T17:28:52.772Z,20.17
2022-09-17T17:31:41.677Z,20.60
2022-09-17T17:34:34.551Z,21.47
2022-09-17T17:37:23.547Z,21.20
2022-09-17T17:40:12.191Z,22.30
2022-09-17T17:43:00.539Z,22.17
2022-09-17T17:45:48.839Z,22.30
2022-09-17T17:48:37.461Z,22.73
2022-09-17T17:51:27.379Z,22.37
2022-09-17T17:54:15.768Z,21.90
2022-09-17T17:57:13.198Z,23.17
2022-09-17T18:00:01.608Z,22.30
2022-09-17T18:03:00.322Z,22.37
2022-09-17T18:05:48.704Z,21.80
2022-09-17T18:08:47.731Z,21.50
2022-09-17T18:11:36.965Z,22.30
2022-09-17T18:14:25.314Z,22.63
2022-09-17T18:17:13.665Z,23.00
2022-09-17T18:20:02.415Z,23.47
2022-09-17T18:22:50.824Z,24.30
2022-09-17T18:25:40.534Z,24.63
2022-09-17T18:28:30.766Z,25.80
2022-09-17T18:31:23.376Z,26.73
2022-09-17T18:34:14.010Z,26.63
2022-09-17T18:37:02.279Z,27.63
2022-09-17T18:39:58.434Z,28.47
2022-09-17T18:42:49.739Z,30.23
2022-09-17T18:45:38.206Z,30.43
2022-09-17T18:48:30.398Z,31.23
2022-09-17T18:51:21.579Z,31.73
2022-09-17T18:54:12.748Z,32.63
2022-09-17T18:57:01.253Z,33.00
2022-09-17T18:59:51.207Z,33.83
2022-09-17T19:02:39.814Z,35.93
2022-09-17T19:05:37.980Z,35.97
2022-09-17T19:08:26.342Z,36.30
2022-09-17T19:11:15.094Z,36.77
2022-09-17T19:14:03.860Z,36.90
2022-09-17T19:16:55.340Z,37.10
2022-09-17T19:19:43.807Z,37.70
2022-09-17T19:22:33.149Z,37.73
2022-09-17T19:25:22.232Z,37.50
2022-09-17T19:28:10.630Z,37.57
2022-09-17T19:30:59.345Z,37.83
2022-09-17T19:33:49.216Z,39.23
2022-09-17T19:36:37.802Z,39.07
2022-09-17T19:39:27.505Z,38.97
2022-09-17T19:42:15.934Z,38.67
2022-09-17T19:45:05.131Z,38.27
2022-09-17T19:47:56.525Z,38.17
2022-09-17T19:50:53.177Z,37.97
2022-09-17T19:53:41.715Z,37.93
2022-09-17T19:56:37.153Z,36.37
2022-09-17T19:59:25.969Z,36.27
2022-09-17T20:02:14.504Z,36.30
2022-09-17T20:05:12.161Z,36.10
2022-09-17T20:08:02.458Z,35.83
2022-09-17T20:10:53.971Z,34.27
2022-09-17T20:13:42.442Z,34.60
2022-09-17T20:16:31.285Z,36.00
2022-09-17T20:19:20.189Z,35.23
2022-09-17T20:22:17.752Z,35.67
2022-09-17T20:25:09.240Z,35.13
2022-09-17T20:27:58.266Z,35.20
2022-09-17T20:31:01.584Z,35.77
2022-09-17T20:33:52.957Z,36.30
2022-09-17T20:36:41.843Z,37.13
2022-09-17T20:39:39.163Z,36.67
2022-09-17T20:42:28.881Z,37.83
2022-09-17T20:45:26.348Z,37.37
2022-09-17T20:48:14.765Z,37.67
2022-09-17T20:51:05.328Z,37.43
2022-09-17T20:53:54.048Z,37.47
2022-09-17T20:56:48.702Z,37.93
2022-09-17T20:59:52.341Z,39.60
2022-09-17T21:02:43.895Z,40.07
2022-09-17T21:05:32.240Z,41.20
2022-09-17T21:08:27.509Z,40.40
2022-09-17T21:11:17.385Z,40.50
2022-09-17T21:14:11.989Z,40.87
2022-09-17T21:17:01.773Z,39.33
2022-09-17T21:19:56.293Z,39.60
2022-09-17T21:22:44.969Z,38.17
2022-09-17T21:25:39.293Z,38.27
2022-09-17T21:28:27.684Z,38.33
2022-09-17T21:31:26.282Z,39.57
2022-09-17T21:34:18.472Z,40.07
2022-09-17T21:37:13.070Z,40.50
2022-09-17T21:40:01.550Z,39.77
2022-09-17T21:42:56.114Z,39.77
2022-09-17T21:45:44.561Z,39.97
2022-09-17T21:48:35.022Z,40.40
2022-09-17T21:51:26.532Z,38.80
2022-09-17T21:54:17.058Z,39.40
2022-09-17T21:57:05.972Z,39.17
2022-09-17T22:00:00.175Z,37.77
2022-09-17T22:02:48.518Z,38.40
2022-09-17T22:05:42.765Z,37.70
2022-09-17T22:08:33.564Z,37.33
2022-09-17T22:11:24.090Z,36.80
2022-09-17T22:14:14.758Z,35.33
2022-09-17T22:17:03.150Z,34.53
2022-09-17T22:20:00.420Z,34.13
2022-09-17T22:22:49.014Z,34.60
2022-09-17T22:25:47.735Z,33.70
2022-09-17T22:28:36.672Z,34.53
2022-09-17T22:31:26.269Z,32.87
2022-09-17T22:34:16.806Z,32.23
2022-09-17T22:37:06.385Z,32.97
2022-09-17T22:39:55.805Z,30.90
2022-09-17T22:42:45.587Z,29.63
2022-09-17T22:45:39.867Z,28.80
2022-09-17T22:48:28.216Z,28.37
2022-09-17T22:51:16.749Z,28.23
2022-09-17T22:54:05.521Z,27.23
2022-09-17T22:56:53.902Z,26.37
2022-09-17T22:59:43.693Z,26.33
2022-09-17T23:02:38.013Z,25.27
2022-09-17T23:05:26.419Z,25.27
2022-09-17T23:08:20.736Z,25.10
2022-09-17T23:11:16.372Z,24.30
2022-09-17T23:14:06.402Z,24.57
2022-09-17T23:17:05.175Z,24.43
2022-09-17T23:19:53.550Z,24.93
2022-09-17T23:22:51.080Z,25.77
2022-09-17T23:25:39.390Z,26.93
2022-09-17T23:28:37.583Z,27.73
2022-09-17T23:31:28.508Z,28.97
2022-09-17T23:34:18.319Z,30.70
2022-09-17T23:37:12.904Z,32.00
2022-09-17T23:40:01.310Z,33.60
2022-09-17T23:42:56.028Z,35.67
2022-09-17T23:45:44.425Z,38.10
2022-09-17T23:48:32.845Z,39.90
2022-09-17T23:51:23.245Z,41.17
2022-09-17T23:54:12.423Z,43.53
2022-09-17T23:57:00.956Z,44.77
2022-09-17T23:59:49.428Z,45.20
